Latest Weather Observations for Tindal

IDD60801

Issued at 2:31 pm CST Tuesday 28 April 2015 (issued every 30 minutes, with the page automatically refreshed every 10 minutes)

About weather observations | Map of weather stations | Latest weather observations for NT | Other Formats
Station Details ID: 014932 Name: TINDAL RAAF Lat: -14.52 Lon: 132.38 Height: 133.6 m
Data from the previous 72 hours. | See also: Recent months at Tindal
Date/Time
CST
Temp
°C
App
Temp
°C
Dew
Point
Rel
Hum
%
Delta-T
°C
Wind Press
QNH
hPa
Press
MSL
hPa
Rain
since 9 am
mm
Dir
 
Spd
km/h
Gust
km/h
Spd
kts
Gust
kts
28/02:30pm 31.1 26.1 4.8 19 13.8 E 20 28 11 15 1013.1 - 0.0
28/02:00pm 31.1 25.2 4.0 18 14.0 E 24 35 13 19 1013.4 - 0.0
28/01:30pm 30.7 25.3 4.4 19 13.7 E 22 30 12 16 1013.9 - 0.0
28/01:00pm 30.6 24.8 4.4 19 13.6 ESE 24 33 13 18 1014.3 - 0.0
28/12:30pm 30.7 25.3 4.4 19 13.7 E 22 33 12 18 1014.7 - 0.0
28/12:00pm 29.7 23.9 4.4 20 13.1 E 24 35 13 19 1015.2 1014.4 0.0
28/11:30am 28.9 22.9 5.1 22 12.4 E 26 41 14 22 1015.7 - 0.0
28/11:00am 27.6 22.5 5.8 25 11.4 ESE 22 28 12 15 1016.4 - 0.0
28/10:30am 26.6 21.3 5.0 25 11.1 ESE 22 33 12 18 1016.7 - 0.0
28/10:00am 25.6 20.1 4.1 25 10.8 ESE 22 30 12 16 1016.9 - 0.0
28/09:30am 24.7 20.0 5.0 28 10.0 ESE 19 32 10 17 1016.8 - 0.0
28/09:00am 22.3 18.3 4.8 32 8.7 SE 15 20 8 11 1016.8 1015.9 0.0
28/08:30am 20.2 17.4 6.9 42 6.8 SE 11 15 6 8 1016.4 - 0.0
28/08:00am 17.9 15.9 7.3 50 5.4 SSE 7 9 4 5 1016.3 - 0.0
28/07:30am 15.8 14.1 8.3 61 3.8 ESE 7 11 4 6 1015.9 - 0.0
28/07:00am 14.4 11.7 8.8 69 2.9 SE 13 15 7 8 1015.7 - 0.0
28/06:30am 15.2 12.4 8.7 65 3.3 SE 13 17 7 9 1015.3 - 0.0
28/06:00am 15.1 12.5 9.5 69 2.9 SE 13 17 7 9 1015.2 1014.4 0.0
28/05:30am 14.0 11.8 9.4 74 2.4 SSE 11 13 6 7 1014.8 - 0.0
28/05:00am 14.7 12.9 9.5 71 2.7 SE 9 11 5 6 1014.7 - 0.0
28/04:30am 14.7 12.9 9.5 71 2.7 SE 9 11 5 6 1014.6 - 0.0
28/04:00am 15.3 13.5 9.4 68 3.1 SE 9 13 5 7 1014.6 - 0.0
28/03:30am 16.4 14.1 9.1 62 3.8 SE 11 15 6 8 1014.6 - 0.0
28/03:00am 16.4 13.9 9.6 64 3.6 SE 13 15 7 8 1014.5 1013.7 0.0
28/02:30am 15.9 13.5 10.0 68 3.1 SE 13 13 7 7 1014.7 - 0.0
28/02:00am 15.7 13.3 10.0 69 3.0 SSE 13 15 7 8 1014.8 - 0.0
28/01:30am 16.3 14.7 10.2 67 3.2 SE 9 11 5 6 1015.2 - 0.0
28/01:00am 16.8 15.1 10.0 64 3.6 SSE 9 11 5 6 1015.2 - 0.0
28/12:30am 17.5 15.8 9.9 61 4.0 SSE 9 11 5 6 1015.8 - 0.0
28/12:00am 19.4 17.2 9.3 52 5.4 ESE 11 17 6 9 1016.3 1015.4 0.0
 
Date/Time
CST
Temp
°C
App
Temp
°C
Dew
Point
Rel
Hum
%
Delta-T
°C
Wind Press
QNH
hPa
Press
MSL
hPa
Rain
since 9 am
mm
Dir
 
Spd
km/h
Gust
km/h
Spd
kts
Gust
kts
27/11:30pm 17.7 16.6 10.6 63 3.8 ESE 7 9 4 5 1016.3 - 0.0
27/11:00pm 17.8 16.3 10.7 63 3.8 SE 9 11 5 6 1016.3 - 0.0
27/10:30pm 17.9 16.6 11.2 65 3.7 ESE 9 9 5 5 1016.3 - 0.0
27/10:00pm 17.7 16.1 11.5 67 3.4 SE 11 11 6 6 1016.5 - 0.0
27/09:30pm 18.3 17.3 11.1 63 3.9 SE 7 11 4 6 1016.5 - 0.0
27/09:00pm 18.8 17.4 10.9 60 4.3 SE 9 9 5 5 1016.3 1015.4 0.0
27/08:30pm 19.9 18.9 11.1 57 4.8 SE 7 7 4 4 1015.8 - 0.0
27/08:00pm 21.1 19.7 10.9 52 5.6 SSE 9 9 5 5 1015.4 - 0.0
27/07:30pm 21.7 20.3 10.8 50 6.0 SSE 9 11 5 6 1014.7 - 0.0
27/06:30pm 25.5 23.4 8.1 33 9.4 ESE 9 11 5 6 1014.2 - 0.0
27/06:00pm 27.6 24.8 6.9 27 11.0 ESE 11 11 6 6 1013.9 1013.1 0.0
27/05:30pm 29.2 25.7 5.3 22 12.5 ESE 13 20 7 11 1013.5 - 0.0
27/05:00pm 30.5 26.5 5.0 20 13.4 ESE 15 20 8 11 1013.2 - 0.0
27/04:30pm 31.0 27.0 4.7 19 13.8 ESE 15 22 8 12 1012.7 - 0.0
27/04:00pm 31.4 27.5 3.4 17 14.4 SE 13 24 7 13 1012.4 - 0.0
27/03:30pm 31.4 26.9 4.2 18 14.2 ESE 17 26 9 14 1012.5 - 0.0
27/03:00pm 30.8 25.6 3.8 18 13.9 E 20 30 11 16 1012.6 1011.7 0.0
27/02:30pm 30.9 26.5 4.6 19 13.7 ESE 17 32 9 17 1012.9 - 0.0
27/02:00pm 30.6 25.8 2.8 17 14.1 ESE 17 24 9 13 1013.2 - 0.0
27/01:30pm 30.3 25.1 3.4 18 13.7 ESE 20 30 11 16 1013.6 - 0.0
27/01:00pm 29.7 24.7 3.6 19 13.3 ESE 19 30 10 16 1014.0 - 0.0
27/12:30pm 29.1 23.1 3.1 19 13.1 E 24 30 13 16 1014.6 - 0.0
27/12:00pm 28.5 22.8 2.7 19 12.8 SE 22 30 12 16 1015.0 1014.2 0.0
27/11:30am 27.6 21.4 1.9 19 12.6 E 24 33 13 18 1015.7 - 0.0
27/11:00am 27.1 21.5 3.6 22 11.8 E 22 33 12 18 1016.0 - 0.0
27/10:30am 26.3 21.2 4.1 24 11.2 E 20 33 11 18 1016.4 - 0.0
27/10:00am 25.1 19.3 4.3 26 10.4 E 24 33 13 18 1016.6 - 0.0
27/09:30am 23.8 18.4 4.7 29 9.6 ESE 22 35 12 19 1016.5 - 0.0
27/09:00am 21.9 17.4 4.0 31 8.7 ESE 17 26 9 14 1016.6 1015.7 0.0
27/08:30am 19.7 16.3 5.7 40 7.0 SE 13 19 7 10 1016.5 - 0.0
27/08:00am 17.3 14.9 6.8 50 5.2 SSE 9 15 5 8 1016.0 - 0.0
27/07:30am 14.6 11.9 7.2 61 3.7 SE 11 13 6 7 1015.6 - 0.0
27/07:00am 13.7 11.3 6.8 63 3.4 SE 9 9 5 5 1015.4 - 0.0
27/06:30am 14.8 11.9 6.4 57 4.1 SE 11 13 6 7 1015.2 - 0.0
27/06:00am 15.7 12.4 6.4 54 4.6 SE 13 17 7 9 1015.2 1014.4 0.0
27/05:30am 16.3 12.6 6.4 52 4.9 SE 15 17 8 9 1015.0 - 0.0
27/05:00am 16.7 13.0 6.5 51 5.0 SE 15 19 8 10 1014.8 - 0.0
27/04:30am 16.9 12.9 6.7 51 5.1 SE 17 20 9 11 1014.7 - 0.0
27/04:00am 17.5 13.6 7.3 51 5.2 SE 17 22 9 12 1014.6 - 0.0
27/03:30am 17.6 13.8 7.6 52 5.1 SE 17 20 9 11 1014.7 - 0.0
27/03:00am 17.9 13.9 8.2 53 5.0 SSE 19 22 10 12 1014.7 1013.9 0.0
27/02:30am 18.2 14.6 8.5 53 5.0 SE 17 20 9 11 1014.7 - 0.0
27/02:00am 16.6 13.7 9.5 63 3.7 SSE 15 17 8 9 1014.8 - 0.0
27/01:30am 16.0 13.7 10.5 70 2.9 SSE 13 13 7 7 1014.9 - 0.0
27/01:00am 16.2 14.3 10.5 69 3.0 SSE 11 13 6 7 1015.2 - 0.0
27/12:30am 17.1 15.6 10.7 66 3.4 SE 9 11 5 6 1015.5 - 0.0
27/12:00am 17.3 15.5 10.9 66 3.5 ESE 11 13 6 7 1015.5 1014.7 0.0
 
Date/Time
CST
Temp
°C
App
Temp
°C
Dew
Point
Rel
Hum
%
Delta-T
°C
Wind Press
QNH
hPa
Press
MSL
hPa
Rain
since 9 am
mm
Dir
 
Spd
km/h
Gust
km/h
Spd
kts
Gust
kts
26/11:30pm 17.2 15.8 11.0 67 3.4 ESE 9 11 5 6 1015.6 - 0.0
26/11:00pm 17.2 15.9 11.2 68 3.3 ESE 9 9 5 5 1015.5 - 0.0
26/10:30pm 17.8 16.9 11.4 66 3.5 ESE 7 9 4 5 1015.6 - 0.0
26/10:00pm 18.3 17.0 11.4 64 3.8 SE 9 11 5 6 1015.6 - 0.0
26/09:30pm 18.8 17.2 11.4 62 4.1 SE 11 11 6 6 1015.7 - 0.0
26/09:00pm 18.9 17.7 11.5 62 4.1 SE 9 11 5 6 1015.5 1014.7 0.0
26/08:30pm 20.1 19.1 11.1 56 5.0 SE 7 9 4 5 1015.3 - 0.0
26/08:00pm 20.9 20.0 11.3 54 5.3 SE 7 9 4 5 1014.9 - 0.0
26/07:30pm 22.1 20.6 10.6 48 6.3 SSE 9 9 5 5 1014.5 - 0.0
26/07:00pm 23.8 21.9 9.0 39 8.0 SE 9 11 5 6 1014.1 - 0.0
26/06:30pm 25.8 23.3 8.3 33 9.5 SE 11 15 6 8 1013.7 - 0.0
26/06:00pm 27.9 25.0 8.2 29 10.8 ESE 13 17 7 9 1013.4 1012.6 0.0
26/05:30pm 29.4 26.8 7.9 26 11.8 ESE 11 17 6 9 1013.1 - 0.0
26/05:00pm 30.1 26.5 6.7 23 12.6 E 15 22 8 12 1012.7 - 0.0
26/04:30pm 30.4 26.5 7.0 23 12.7 ESE 17 24 9 13 1012.7 - 0.0
26/04:00pm 30.8 26.8 6.6 22 13.1 E 17 26 9 14 1012.6 - 0.0
26/03:30pm 30.4 26.0 7.6 24 12.5 ESE 20 28 11 15 1012.7 - 0.0
26/03:00pm 30.5 26.2 7.0 23 12.8 E 19 30 10 16 1012.8 1011.9 0.0
26/02:30pm 29.9 25.6 7.2 24 12.3 ESE 19 24 10 13 1013.1 - 0.0
26/02:00pm 30.0 26.4 8.4 26 12.0 E 17 26 9 14 1013.5 - 0.0
26/01:30pm 29.1 25.4 6.5 24 12.1 E 15 24 8 13 1013.9 - 0.0
26/01:00pm 29.2 24.2 6.6 24 12.1 ESE 22 30 12 16 1014.3 - 0.0
26/12:30pm 28.8 23.9 6.8 25 11.8 E 22 32 12 17 1014.7 - 0.0
26/12:00pm 28.4 23.9 7.1 26 11.4 E 20 33 11 18 1015.3 1014.5 0.0
26/11:30am 27.7 23.0 5.9 25 11.4 ESE 20 30 11 16 1015.7 - 0.0
26/11:00am 27.0 22.3 5.9 26 11.0 ESE 20 32 11 17 1016.2 - 0.0
26/10:30am 26.4 21.9 5.9 27 10.7 ESE 19 28 10 15 1016.6 - 0.0
26/10:00am 25.5 21.0 6.2 29 10.0 ESE 19 28 10 15 1016.7 - 0.0
26/09:30am 23.9 17.9 5.3 30 9.4 SE 26 39 14 21 1016.6 - 0.0
26/09:00am 23.0 17.4 5.4 32 8.9 SE 24 37 13 20 1016.4 1015.5 0.0
26/08:30am 22.0 17.4 5.4 34 8.3 SE 19 28 10 15 1016.3 - 0.0
26/08:00am 20.6 16.8 5.8 38 7.4 SE 15 20 8 11 1015.9 - 0.0
26/07:30am 18.9 15.2 6.4 44 6.3 SE 15 19 8 10 1015.4 - 0.0
26/07:00am 17.1 13.8 6.3 49 5.3 SE 13 19 7 10 1015.0 - 0.0
26/06:30am 16.1 13.3 6.8 54 4.6 SE 11 13 6 7 1014.8 - 0.0
26/06:00am 16.3 13.1 7.0 54 4.6 SE 13 15 7 8 1014.8 1014.0 0.0
26/05:30am 16.2 13.1 7.4 56 4.4 SE 13 15 7 8 1014.7 - 0.0
26/05:00am 16.6 13.6 7.5 55 4.6 SE 13 13 7 7 1014.6 - 0.0
26/04:30am 17.1 13.7 7.5 53 4.9 SSE 15 17 8 9 1014.3 - 0.0
26/04:00am 17.6 14.6 7.6 52 5.1 SSE 13 15 7 8 1013.9 - 0.0
26/03:30am 18.9 15.9 7.7 48 5.8 SE 13 15 7 8 1013.4 - 0.0
26/03:00am 19.0 15.5 7.4 47 5.9 SE 15 17 8 9 1013.3 1012.5 0.0
26/02:30am 20.2 16.3 7.2 43 6.7 SE 17 20 9 11 1013.1 - 0.0
26/02:00am 21.0 17.1 7.3 41 7.1 SE 17 20 9 11 1013.2 - 0.0
26/01:30am 21.6 17.2 7.4 40 7.4 SE 20 28 11 15 1013.3 - 0.0
26/01:00am 22.5 17.7 7.5 38 7.8 SE 22 32 12 17 1013.3 - 0.0
26/12:30am 19.9 17.1 10.0 53 5.3 SE 15 20 8 11 1013.5 - 0.0
26/12:00am 18.3 16.5 12.1 67 3.4 SSE 13 15 7 8 1013.6 1012.8 0.0
 
Date/Time
CST
Temp
°C
App
Temp
°C
Dew
Point
Rel
Hum
%
Delta-T
°C
Wind Press
QNH
hPa
Press
MSL
hPa
Rain
since 9 am
mm
Dir
 
Spd
km/h
Gust
km/h
Spd
kts
Gust
kts
25/11:30pm 18.7 17.2 12.0 65 3.7 SSE 11 13 6 7 1013.6 - 0.0
25/11:00pm 19.1 17.7 12.1 64 3.9 SSE 11 13 6 7 1013.8 - 0.0
25/10:30pm 18.9 17.9 12.4 66 3.6 SSE 9 11 5 6 1013.8 - 0.0
25/10:00pm 19.2 18.7 12.5 65 3.8 SSE 7 9 4 5 1013.7 - 0.0
25/09:30pm 19.7 18.8 12.7 64 4.0 SSE 9 9 5 5 1013.7 - 0.0
25/09:00pm 21.0 20.5 12.7 59 4.7 SE 7 9 4 5 1013.4 1012.6 0.0
25/08:30pm 21.6 21.0 11.6 53 5.6 SE 6 7 3 4 1013.2 - 0.0
25/08:00pm 22.7 22.0 12.0 50 6.1 ESE 7 9 4 5 1012.7 - 0.0
25/07:30pm 24.0 23.3 11.3 45 7.2 ESE 6 7 3 4 1012.3 - 0.0
25/07:00pm 25.4 23.7 9.7 37 8.7 SSE 9 11 5 6 1012.0 - 0.0
25/06:30pm 27.8 25.3 8.1 29 10.7 ESE 11 11 6 6 1011.5 - 0.0
25/06:00pm 30.3 27.6 7.5 24 12.5 ESE 11 15 6 8 1011.2 1010.3 0.0
25/05:30pm 31.7 27.8 5.3 19 14.0 ESE 15 20 8 11 1010.9 - 0.0
25/05:00pm 32.6 28.7 5.2 18 14.6 E 15 20 8 11 1010.4 - 0.0
25/04:30pm 32.8 28.0 4.6 17 14.9 SE 19 20 10 11 1010.4 - 0.0
25/04:00pm 33.2 28.1 4.0 16 15.3 ESE 20 33 11 18 1010.1 - 0.0
25/03:30pm 33.7 29.0 5.3 17 15.2 ESE 19 28 10 15 1010.2 - 0.0
25/03:00pm 33.1 28.0 3.9 16 15.3 SE 20 28 11 15 1010.2 1009.3 0.0

Other Formats:

Comma delimited format used in spreadsheet applications
http://www.bom.gov.au/fwo/IDD60801/IDD60801.94131.axf

JavaScript Object Notation format (JSON) in row-major order
http://www.bom.gov.au/fwo/IDD60801/IDD60801.94131.json